createdAt,value
2023-05-10T00:00:05.115Z,116943.30
2023-05-10T00:01:07.884Z,116943.30
2023-05-10T00:02:10.614Z,116943.30
2023-05-10T00:03:13.316Z,116943.30
2023-05-10T00:04:16.041Z,116943.30
2023-05-10T00:05:18.909Z,116943.30
2023-05-10T00:06:21.558Z,116943.30
2023-05-10T00:07:24.213Z,116943.30
2023-05-10T00:08:26.904Z,116943.30
2023-05-10T00:09:29.456Z,116943.30
2023-05-10T00:10:32.252Z,116943.30
2023-05-10T00:11:34.906Z,116943.30
2023-05-10T00:12:37.567Z,116943.30
2023-05-10T00:13:40.260Z,116681.65
2023-05-10T00:14:42.908Z,115899.87
2023-05-10T00:15:45.478Z,115769.59
2023-05-10T00:16:48.214Z,115899.87
2023-05-10T00:17:51.078Z,114467.02
2023-05-10T00:18:53.890Z,112253.59
2023-05-10T00:19:56.557Z,112123.42
2023-05-10T00:20:59.230Z,113295.05
2023-05-10T00:22:01.893Z,115118.26
2023-05-10T00:23:04.664Z,114727.50
2023-05-10T00:24:07.443Z,113295.05
2023-05-10T00:25:10.252Z,111342.52
2023-05-10T00:26:12.789Z,113555.46
2023-05-10T00:27:15.470Z,111993.27
2023-05-10T00:28:18.124Z,113685.67
2023-05-10T00:29:20.893Z,111993.27
2023-05-10T00:30:23.568Z,113555.46
2023-05-10T00:31:26.255Z,111732.95
2023-05-10T00:32:28.839Z,106400.30
2023-05-10T00:33:31.462Z,106530.28
2023-05-10T00:34:34.140Z,107960.35
2023-05-10T00:35:36.920Z,109781.17
2023-05-10T00:36:39.589Z,110822.01
2023-05-10T00:37:42.365Z,105880.41
2023-05-10T00:38:45.030Z,103281.98
2023-05-10T00:39:47.697Z,107050.25
2023-05-10T00:40:50.567Z,106790.25
2023-05-10T00:41:53.237Z,106920.25
2023-05-10T00:42:56.020Z,108740.61
2023-05-10T00:43:58.809Z,104451.08
2023-05-10T00:45:01.561Z,105490.55
2023-05-10T00:46:04.344Z,99257.70
2023-05-10T00:47:07.208Z,101334.25
2023-05-10T00:48:10.077Z,103801.54
2023-05-10T00:49:12.966Z,104321.16
2023-05-10T00:50:16.055Z,95237.42
2023-05-10T00:51:19.111Z,78993.47
2023-05-10T00:52:22.000Z,76811.46
2023-05-10T00:53:24.654Z,93821.95
2023-05-10T00:54:27.525Z,97700.99
2023-05-10T00:55:30.308Z,101464.08
2023-05-10T00:56:33.178Z,102372.93
2023-05-10T00:57:36.159Z,92536.51
2023-05-10T00:58:39.038Z,86621.67
2023-05-10T00:59:42.006Z,51919.90
2023-05-10T01:00:45.007Z,83869.98
2023-05-10T01:01:47.878Z,85438.54
2023-05-10T01:02:51.066Z,87420.06
2023-05-10T01:03:54.020Z,87577.73
2023-05-10T01:04:56.912Z,84906.19
2023-05-10T01:05:59.773Z,46317.98
2023-05-10T01:07:02.549Z,34924.52
2023-05-10T01:08:05.420Z,31570.52
2023-05-10T01:09:08.289Z,37173.43
2023-05-10T01:10:11.094Z,37079.61
2023-05-10T01:11:13.850Z,47046.30
2023-05-10T01:12:16.739Z,59783.55
2023-05-10T01:13:19.627Z,74716.28
2023-05-10T01:14:22.589Z,57814.67
2023-05-10T01:15:25.554Z,35625.79
2023-05-10T01:16:28.491Z,38773.59
2023-05-10T01:17:31.424Z,44800.75
2023-05-10T01:18:34.272Z,40653.09
2023-05-10T01:19:37.137Z,45779.84
2023-05-10T01:20:40.023Z,44406.79
2023-05-10T01:21:43.005Z,43442.04
2023-05-10T01:22:45.781Z,49001.83
2023-05-10T01:23:48.642Z,49283.13
2023-05-10T01:24:51.620Z,49165.00
2023-05-10T01:25:54.398Z,54341.91
2023-05-10T01:26:57.163Z,64429.64
2023-05-10T01:28:00.243Z,62045.66
2023-05-10T01:29:03.231Z,60618.77
2023-05-10T01:30:15.467Z,75746.09
2023-05-10T01:31:10.676Z,72175.11
2023-05-10T01:32:13.486Z,86904.63
2023-05-10T01:33:16.372Z,57525.75
2023-05-10T01:34:19.332Z,40772.96
2023-05-10T01:35:22.211Z,37760.31
2023-05-10T01:36:25.090Z,40359.42
2023-05-10T01:37:27.753Z,42603.45
2023-05-10T01:38:30.729Z,44442.78
2023-05-10T01:39:33.400Z,44085.84
2023-05-10T01:40:36.282Z,45880.86
2023-05-10T01:41:38.943Z,43941.87
2023-05-10T01:42:41.524Z,43862.90
2023-05-10T01:43:44.178Z,45019.75
2023-05-10T01:44:46.761Z,44933.75
2023-05-10T01:45:49.361Z,46702.14
2023-05-10T01:46:52.020Z,44389.79
2023-05-10T01:47:54.689Z,45169.75
2023-05-10T01:48:57.216Z,46524.06
2023-05-10T01:49:59.791Z,45916.87
2023-05-10T01:51:02.668Z,46644.11
2023-05-10T01:52:05.437Z,45980.88
2023-05-10T01:53:08.404Z,44632.76
2023-05-10T01:54:10.979Z,43355.07
2023-05-10T01:55:13.566Z,44780.75
2023-05-10T01:56:16.411Z,44795.75
2023-05-10T01:57:19.197Z,43656.96
2023-05-10T01:58:21.866Z,43010.22
2023-05-10T01:59:24.434Z,43737.93
2023-05-10T02:00:27.409Z,45558.79
2023-05-10T02:01:30.002Z,44482.77
2023-05-10T02:02:32.690Z,44419.78
2023-05-10T02:03:35.338Z,44825.75
2023-05-10T02:04:37.989Z,43708.94
2023-05-10T02:05:40.554Z,43223.12
2023-05-10T02:06:43.215Z,43587.98
2023-05-10T02:07:45.997Z,43759.93
2023-05-10T02:08:48.869Z,46656.12
2023-05-10T02:09:51.638Z,45895.86
2023-05-10T02:10:54.620Z,45875.86
2023-05-10T02:11:57.497Z,45533.79
2023-05-10T02:13:00.387Z,45010.75
2023-05-10T02:14:03.248Z,43889.89
2023-05-10T02:15:06.116Z,45730.82
2023-05-10T02:16:08.930Z,44435.78
2023-05-10T02:17:11.978Z,45509.79
2023-05-10T02:18:14.536Z,45404.77
2023-05-10T02:19:17.426Z,48838.66
2023-05-10T02:20:20.518Z,57468.57
2023-05-10T02:21:23.575Z,47658.68
2023-05-10T02:22:26.379Z,46211.95
2023-05-10T02:23:29.215Z,42814.32
2023-05-10T02:24:32.001Z,42362.59
2023-05-10T02:25:34.774Z,43925.88
2023-05-10T02:26:37.631Z,44122.83
2023-05-10T02:27:40.513Z,43036.21
2023-05-10T02:28:43.283Z,42847.31
2023-05-10T02:29:46.265Z,45496.79
2023-05-10T02:30:49.038Z,45681.82
2023-05-10T02:31:51.958Z,49493.36
2023-05-10T02:32:54.817Z,52837.62
2023-05-10T02:33:57.656Z,42980.24
2023-05-10T02:35:00.550Z,42803.33
2023-05-10T02:36:03.409Z,43667.96
2023-05-10T02:37:06.290Z,40948.78
2023-05-10T02:38:09.168Z,43089.19
2023-05-10T02:39:12.034Z,43031.21
2023-05-10T02:40:15.140Z,43352.07
2023-05-10T02:41:17.893Z,44911.75
2023-05-10T02:42:20.464Z,45325.77
2023-05-10T02:43:23.022Z,49289.14
2023-05-10T02:44:25.688Z,47560.61
2023-05-10T02:45:28.355Z,41716.07
2023-05-10T02:46:31.086Z,42735.37
2023-05-10T02:47:33.737Z,41734.06
2023-05-10T02:48:36.592Z,42504.50
2023-05-10T02:49:39.450Z,43014.22
2023-05-10T02:50:42.318Z,44491.77
2023-05-10T02:51:45.196Z,45997.89
2023-05-10T02:52:47.976Z,48401.26
2023-05-10T02:53:50.954Z,48846.67
2023-05-10T02:54:53.815Z,48327.20
2023-05-10T02:55:56.695Z,49035.86
2023-05-10T02:56:59.667Z,48638.47
2023-05-10T02:58:02.495Z,48085.00
2023-05-10T02:59:05.312Z,47538.60
2023-05-10T03:00:08.198Z,47579.63
2023-05-10T03:01:11.087Z,47358.48
2023-05-10T03:02:13.947Z,49329.18
2023-05-10T03:03:16.622Z,47803.78
2023-05-10T03:04:19.237Z,47509.58
2023-05-10T03:05:21.855Z,46390.01
2023-05-10T03:06:24.427Z,45213.76
2023-05-10T03:07:27.112Z,44901.75
2023-05-10T03:08:29.673Z,44732.75
2023-05-10T03:09:32.454Z,47276.43
2023-05-10T03:10:34.893Z,47716.72
2023-05-10T03:11:37.461Z,49041.87
2023-05-10T03:12:40.128Z,49356.21
2023-05-10T03:13:42.805Z,48835.66
2023-05-10T03:14:45.268Z,49318.17
2023-05-10T03:15:47.967Z,48240.12
2023-05-10T03:16:50.610Z,47661.68
2023-05-10T03:17:53.313Z,47216.40
2023-05-10T03:18:56.051Z,49298.14
2023-05-10T03:19:58.758Z,48937.77
2023-05-10T03:21:02.196Z,48178.07
2023-05-10T03:22:05.168Z,48897.72
2023-05-10T03:23:08.154Z,49083.91
2023-05-10T03:24:11.633Z,50276.34
2023-05-10T03:25:15.023Z,46099.92
2023-05-10T03:26:18.222Z,44660.76
2023-05-10T03:27:21.303Z,44183.82
2023-05-10T03:28:24.664Z,45411.78
2023-05-10T03:29:27.956Z,44615.76
2023-05-10T03:30:31.033Z,45758.83
2023-05-10T03:31:34.298Z,43902.89
2023-05-10T03:32:37.233Z,43716.94
2023-05-10T03:33:40.068Z,45088.75
2023-05-10T03:34:43.356Z,43719.94
2023-05-10T03:35:46.528Z,44154.83
2023-05-10T03:36:49.713Z,43436.04
2023-05-10T03:37:52.490Z,43081.19
2023-05-10T03:38:55.360Z,43798.91
2023-05-10T03:39:58.550Z,44498.77
2023-05-10T03:41:00.871Z,44806.75
2023-05-10T03:42:03.678Z,45459.78
2023-05-10T03:43:06.565Z,45503.79
2023-05-10T03:44:09.837Z,46039.90
2023-05-10T03:45:12.913Z,46294.98
2023-05-10T03:46:15.922Z,45643.81
2023-05-10T03:47:18.979Z,46648.11
2023-05-10T03:48:21.956Z,51483.16
2023-05-10T03:49:24.818Z,47677.69
2023-05-10T03:50:27.821Z,49436.30
2023-05-10T03:51:30.777Z,43074.19
2023-05-10T03:52:33.854Z,42134.75
2023-05-10T03:53:37.155Z,42017.84
2023-05-10T03:54:40.336Z,41814.99
2023-05-10T03:55:43.651Z,45799.84
2023-05-10T03:56:46.788Z,45181.75
2023-05-10T03:57:49.979Z,46085.91
2023-05-10T03:58:53.254Z,45244.76
2023-05-10T03:59:56.537Z,45998.89
2023-05-10T04:00:59.618Z,46540.07
2023-05-10T04:02:02.928Z,47250.42
2023-05-10T04:03:06.259Z,48544.39
2023-05-10T04:04:09.420Z,48855.68
2023-05-10T04:05:12.659Z,48989.82
2023-05-10T04:06:15.883Z,52593.14
2023-05-10T04:07:18.914Z,52172.36
2023-05-10T04:08:22.305Z,52041.12
2023-05-10T04:09:25.491Z,52089.20
2023-05-10T04:10:28.772Z,51953.96
2023-05-10T04:11:32.160Z,51389.00
2023-05-10T04:12:35.448Z,53466.93
2023-05-10T04:13:38.632Z,55525.90
2023-05-10T04:14:41.598Z,56003.20
2023-05-10T04:15:45.093Z,56147.61
2023-05-10T04:16:48.507Z,56699.21
2023-05-10T04:17:51.606Z,53873.83
2023-05-10T04:18:55.040Z,52905.76
2023-05-10T04:19:58.126Z,52552.07
2023-05-10T04:21:01.104Z,53078.11
2023-05-10T04:22:04.287Z,53992.10
2023-05-10T04:23:07.270Z,55600.10
2023-05-10T04:24:10.504Z,53591.20
2023-05-10T04:25:13.741Z,53707.46
2023-05-10T04:26:16.904Z,52708.37
2023-05-10T04:27:20.088Z,52598.16
2023-05-10T04:28:23.162Z,53809.68
2023-05-10T04:29:26.446Z,55822.70
2023-05-10T04:30:29.630Z,54397.04
2023-05-10T04:31:33.454Z,51761.62
2023-05-10T04:32:37.088Z,51463.12
2023-05-10T04:33:40.099Z,51650.43
2023-05-10T04:34:43.073Z,54986.50
2023-05-10T04:35:45.970Z,55414.60
2023-05-10T04:36:48.720Z,55934.01
2023-05-10T04:37:51.692Z,54664.69
2023-05-10T04:38:54.776Z,53743.54
2023-05-10T04:39:57.651Z,52228.46
2023-05-10T04:41:00.535Z,52585.13
2023-05-10T04:42:03.298Z,49388.25
2023-05-10T04:43:06.072Z,49664.57
2023-05-10T04:44:08.944Z,53149.26
2023-05-10T04:45:12.132Z,55213.07
2023-05-10T04:46:15.256Z,57152.58
2023-05-10T04:47:18.396Z,55588.07
2023-05-10T04:48:21.773Z,54452.18
2023-05-10T04:49:24.852Z,56683.16
2023-05-10T04:50:27.933Z,55798.64
2023-05-10T04:51:31.022Z,57892.93
2023-05-10T04:52:34.161Z,58239.07
2023-05-10T04:53:37.282Z,57754.48
2023-05-10T04:54:40.576Z,59776.53
2023-05-10T04:55:43.847Z,58665.53
2023-05-10T04:56:47.033Z,59655.07
2023-05-10T04:57:50.211Z,59010.73
2023-05-10T04:58:53.905Z,58402.62
2023-05-10T04:59:57.083Z,57977.20
2023-05-10T05:01:00.060Z,55049.66
2023-05-10T05:02:03.181Z,55471.75
2023-05-10T05:03:06.491Z,55551.97
2023-05-10T05:04:09.819Z,55645.22
2023-05-10T05:05:12.792Z,56475.55
2023-05-10T05:06:15.763Z,55580.04
2023-05-10T05:07:18.845Z,57647.13
2023-05-10T05:08:21.820Z,56675.14
2023-05-10T05:09:25.417Z,55862.81
2023-05-10T05:10:28.491Z,55722.43
2023-05-10T05:11:31.376Z,52945.84
2023-05-10T05:12:34.545Z,49735.65
2023-05-10T05:13:37.625Z,49587.47
2023-05-10T05:14:40.713Z,52238.48
2023-05-10T05:15:43.698Z,53586.19
2023-05-10T05:16:46.662Z,53627.28
2023-05-10T05:17:49.553Z,53391.77
2023-05-10T05:18:52.826Z,53733.51
2023-05-10T05:19:56.314Z,54601.54
2023-05-10T05:20:59.487Z,54180.53
2023-05-10T05:22:02.475Z,55631.18
2023-05-10T05:23:05.576Z,54200.58
2023-05-10T05:24:08.629Z,57035.22
2023-05-10T05:25:11.707Z,55908.94
2023-05-10T05:26:14.784Z,55450.70
2023-05-10T05:27:17.557Z,54858.17
2023-05-10T05:28:20.439Z,55138.88
2023-05-10T05:29:23.307Z,54430.12
2023-05-10T05:30:26.084Z,53841.75
2023-05-10T05:31:29.004Z,54429.12
2023-05-10T05:32:31.955Z,54753.91
2023-05-10T05:33:35.114Z,55068.70
2023-05-10T05:34:37.992Z,54299.81
2023-05-10T05:35:40.968Z,54340.91
2023-05-10T05:36:43.845Z,53286.55
2023-05-10T05:37:46.734Z,52620.20
2023-05-10T05:38:49.592Z,52681.32
2023-05-10T05:39:52.259Z,53241.45
2023-05-10T05:40:55.341Z,56161.65
2023-05-10T05:41:58.314Z,57800.63
2023-05-10T05:43:01.316Z,64551.24
2023-05-10T05:44:04.472Z,66738.63
2023-05-10T05:45:07.764Z,69717.06
2023-05-10T05:46:11.119Z,59176.33
2023-05-10T05:47:14.146Z,55729.45
2023-05-10T05:48:17.201Z,50437.56
2023-05-10T05:49:20.189Z,47046.30
2023-05-10T05:50:23.267Z,46349.00
2023-05-10T05:51:26.602Z,45637.81
2023-05-10T05:52:30.653Z,45993.89
2023-05-10T05:53:33.936Z,45334.77
2023-05-10T05:54:37.022Z,48931.76
2023-05-10T05:55:40.396Z,51320.89
2023-05-10T05:56:43.270Z,47890.85
2023-05-10T05:57:46.041Z,45847.85
2023-05-10T05:58:49.019Z,48213.10
2023-05-10T05:59:51.790Z,49751.67
2023-05-10T06:00:54.672Z,46690.13
2023-05-10T06:01:57.865Z,43701.95
2023-05-10T06:03:00.928Z,43535.00
2023-05-10T06:04:03.773Z,45630.80
2023-05-10T06:05:07.090Z,46115.92
2023-05-10T06:06:09.961Z,47001.28
2023-05-10T06:07:12.732Z,48763.59
2023-05-10T06:08:15.543Z,47347.48
2023-05-10T06:09:18.506Z,47481.56
2023-05-10T06:10:21.353Z,48704.54
2023-05-10T06:11:24.239Z,46625.11
2023-05-10T06:12:27.206Z,45643.81
2023-05-10T06:13:30.075Z,47295.45
2023-05-10T06:14:32.761Z,48967.80
2023-05-10T06:15:35.529Z,49637.53
2023-05-10T06:16:38.425Z,52012.06
2023-05-10T06:17:41.248Z,51757.62
2023-05-10T06:18:44.046Z,50882.21
2023-05-10T06:19:46.938Z,53034.02
2023-05-10T06:20:50.002Z,58980.63
2023-05-10T06:21:54.013Z,63807.64
2023-05-10T06:22:57.291Z,77588.74
2023-05-10T06:24:00.165Z,86643.91
2023-05-10T06:25:03.449Z,93352.27
2023-05-10T06:26:06.331Z,101723.73
2023-05-10T06:27:09.112Z,106010.38
2023-05-10T06:28:12.378Z,108740.61
2023-05-10T06:29:15.149Z,111472.66
2023-05-10T06:30:17.929Z,113034.66
2023-05-10T06:31:20.933Z,114076.33
2023-05-10T06:32:23.821Z,115118.26
2023-05-10T06:33:27.082Z,115509.05
2023-05-10T06:34:29.832Z,116160.45
2023-05-10T06:35:32.905Z,116160.45
2023-05-10T06:36:36.103Z,116551.34
2023-05-10T06:37:39.082Z,116811.96
2023-05-10T06:38:42.353Z,116942.28
2023-05-10T06:39:45.231Z,116943.30
2023-05-10T06:40:48.538Z,116943.30
2023-05-10T06:41:51.693Z,116943.30
2023-05-10T06:42:54.872Z,116943.30
2023-05-10T06:43:58.085Z,116943.30
2023-05-10T06:45:01.138Z,116943.30
2023-05-10T06:46:03.854Z,116943.30
2023-05-10T06:47:06.677Z,116943.30
2023-05-10T06:48:09.777Z,116943.30
2023-05-10T06:49:12.737Z,116943.30
2023-05-10T06:50:15.711Z,116943.30
2023-05-10T06:51:18.611Z,116943.30
2023-05-10T06:52:21.568Z,116943.30
2023-05-10T06:53:24.252Z,116943.30
2023-05-10T06:54:27.324Z,116943.30
2023-05-10T06:55:30.089Z,116943.30
2023-05-10T06:56:32.762Z,116943.30
2023-05-10T06:57:35.739Z,116943.30
2023-05-10T06:58:38.651Z,116943.30
2023-05-10T06:59:41.487Z,116943.30
2023-05-10T07:00:44.468Z,116943.30
2023-05-10T07:01:47.346Z,116943.30
2023-05-10T07:02:50.455Z,116943.30
2023-05-10T07:03:53.395Z,116943.30
2023-05-10T07:04:56.616Z,116943.30
2023-05-10T07:05:59.752Z,116943.30
2023-05-10T07:07:02.834Z,116943.30
2023-05-10T07:08:06.017Z,116943.30
2023-05-10T07:09:08.916Z,116943.30
2023-05-10T07:10:12.074Z,116943.30
2023-05-10T07:11:15.358Z,116943.30
2023-05-10T07:12:18.459Z,116943.30
2023-05-10T07:13:21.775Z,116943.30
2023-05-10T07:14:24.899Z,116943.30
2023-05-10T07:15:28.317Z,116943.30
2023-05-10T07:16:31.301Z,116943.30
2023-05-10T07:17:34.619Z,116943.30
2023-05-10T07:18:37.824Z,116943.30
2023-05-10T07:19:40.506Z,116943.30
2023-05-10T07:20:43.280Z,116943.30
2023-05-10T07:21:46.046Z,116943.30
2023-05-10T07:22:48.838Z,116943.30
2023-05-10T07:23:51.705Z,116943.30
2023-05-10T07:24:54.470Z,116943.30
2023-05-10T07:25:57.247Z,116943.30
2023-05-10T07:26:59.918Z,116943.30
2023-05-10T07:28:02.887Z,116943.30
2023-05-10T07:29:05.861Z,116943.30
2023-05-10T07:30:08.758Z,116943.30
2023-05-10T07:31:11.919Z,116943.30
2023-05-10T07:32:14.948Z,116943.30
2023-05-10T07:33:18.013Z,116943.30
2023-05-10T07:34:20.955Z,116943.30
2023-05-10T07:35:24.238Z,116943.30
2023-05-10T07:36:27.303Z,116943.30
2023-05-10T07:37:30.300Z,116943.30
2023-05-10T07:38:33.165Z,116943.30
2023-05-10T07:39:36.248Z,116943.30
2023-05-10T07:40:39.325Z,116943.30
2023-05-10T07:41:42.613Z,116943.30
2023-05-10T07:42:45.704Z,116943.30
2023-05-10T07:43:48.689Z,116943.30
2023-05-10T07:44:51.350Z,116943.30
2023-05-10T07:45:56.101Z,116943.30
2023-05-10T07:46:59.041Z,116943.30
2023-05-10T07:48:01.964Z,116943.30
2023-05-10T07:49:04.994Z,116943.30
2023-05-10T07:50:07.765Z,116943.30
2023-05-10T07:51:11.169Z,116943.30
2023-05-10T07:52:14.332Z,116943.30
2023-05-10T07:53:17.302Z,116943.30
2023-05-10T07:54:20.379Z,116943.30
2023-05-10T07:55:24.078Z,116943.30
2023-05-10T07:56:27.065Z,116943.30
2023-05-10T07:57:30.352Z,116943.30
2023-05-10T07:58:33.434Z,116943.30
2023-05-10T07:59:36.504Z,116943.30
2023-05-10T08:00:39.681Z,116943.30
2023-05-10T08:01:42.654Z,116943.30
2023-05-10T08:02:45.629Z,116943.30
2023-05-10T08:03:48.809Z,116943.30
2023-05-10T08:04:51.995Z,116943.30
2023-05-10T08:05:54.897Z,116943.30
2023-05-10T08:06:57.950Z,116943.30
2023-05-10T08:08:01.127Z,116943.30
2023-05-10T08:09:04.417Z,116943.30
2023-05-10T08:10:07.182Z,116943.30
2023-05-10T08:11:09.960Z,116943.30
2023-05-10T08:12:12.745Z,116943.30
2023-05-10T08:13:15.813Z,116943.30
2023-05-10T08:14:18.595Z,116943.30
2023-05-10T08:15:21.356Z,116943.30
2023-05-10T08:16:24.174Z,116943.30
2023-05-10T08:17:26.951Z,116943.30
2023-05-10T08:18:29.904Z,116943.30
2023-05-10T08:19:32.654Z,116943.30
2023-05-10T08:20:35.418Z,116943.30
2023-05-10T08:21:38.204Z,116943.30
2023-05-10T08:22:41.310Z,116943.30
2023-05-10T08:23:44.355Z,116943.30
2023-05-10T08:24:47.224Z,116943.30
2023-05-10T08:25:50.203Z,116943.30
2023-05-10T08:26:53.488Z,116943.30
2023-05-10T08:27:56.674Z,116943.30
2023-05-10T08:28:59.544Z,116943.30
2023-05-10T08:30:02.647Z,116943.30
2023-05-10T08:31:05.946Z,116943.30
2023-05-10T08:32:08.987Z,116943.30
2023-05-10T08:33:12.124Z,116943.30
2023-05-10T08:34:15.366Z,116943.30
2023-05-10T08:35:18.495Z,116943.30
2023-05-10T08:36:21.816Z,116943.30
2023-05-10T08:37:24.796Z,116943.30
2023-05-10T08:38:27.792Z,116943.30
2023-05-10T08:39:31.035Z,116943.30
2023-05-10T08:40:33.820Z,116943.30
2023-05-10T08:41:36.918Z,116943.30
2023-05-10T08:42:39.881Z,116943.30
2023-05-10T08:43:42.671Z,116943.30
2023-05-10T08:44:46.665Z,116943.30
2023-05-10T08:45:49.943Z,116943.30
2023-05-10T08:46:52.674Z,116943.30
2023-05-10T08:47:55.352Z,116943.30
2023-05-10T08:48:57.954Z,116943.30
2023-05-10T08:50:00.932Z,116943.30
2023-05-10T08:51:03.917Z,116943.30
2023-05-10T08:52:06.750Z,116943.30
2023-05-10T08:53:09.760Z,116943.30
2023-05-10T08:54:12.639Z,116943.30
2023-05-10T08:55:15.921Z,116943.30
2023-05-10T08:56:19.102Z,116943.30
2023-05-10T08:57:21.777Z,116943.30
2023-05-10T08:58:24.447Z,116943.30
2023-05-10T08:59:27.212Z,116943.30
2023-05-10T09:00:30.305Z,116943.30
2023-05-10T09:01:33.084Z,116943.30
2023-05-10T09:02:35.881Z,116943.30
2023-05-10T09:03:38.616Z,116943.30
2023-05-10T09:04:41.565Z,116943.30
2023-05-10T09:05:44.358Z,116943.30
2023-05-10T09:06:47.128Z,116943.30
2023-05-10T09:07:50.330Z,116943.30
2023-05-10T09:08:53.339Z,116943.30
2023-05-10T09:09:56.469Z,116943.30
2023-05-10T09:10:59.757Z,116943.30
2023-05-10T09:12:02.733Z,116943.30
2023-05-10T09:13:05.825Z,116943.30
2023-05-10T09:14:08.993Z,116943.30
2023-05-10T09:15:11.971Z,116943.30
2023-05-10T09:17:19.953Z,116943.30
2023-05-10T09:18:23.097Z,116943.30
2023-05-10T09:19:26.028Z,116943.30
2023-05-10T09:20:29.217Z,116943.30
2023-05-10T09:21:31.995Z,116943.30
2023-05-10T09:22:36.566Z,116943.30
2023-05-10T09:23:39.265Z,116943.30
2023-05-10T09:24:41.935Z,116943.30
2023-05-10T09:25:44.715Z,116943.30
2023-05-10T09:26:47.379Z,116943.30
2023-05-10T09:27:50.157Z,116943.30
2023-05-10T09:28:53.045Z,116943.30
2023-05-10T09:29:55.800Z,116943.30
2023-05-10T09:30:58.638Z,116943.30
2023-05-10T09:32:01.339Z,116943.30
2023-05-10T09:33:04.066Z,116943.30
2023-05-10T09:34:07.093Z,116943.30
2023-05-10T09:35:10.277Z,116943.30
2023-05-10T09:36:13.364Z,116943.30
2023-05-10T09:37:16.435Z,116943.30
2023-05-10T09:38:19.305Z,116943.30
2023-05-10T09:39:22.282Z,116943.30
2023-05-10T09:40:25.180Z,116943.30
2023-05-10T09:41:28.238Z,116943.30
2023-05-10T09:42:31.430Z,116943.30
2023-05-10T09:43:34.396Z,116943.30
2023-05-10T09:44:37.409Z,116943.30
2023-05-10T09:45:40.351Z,116943.30
2023-05-10T09:46:43.377Z,116943.30
2023-05-10T09:47:46.719Z,116943.30
2023-05-10T09:48:49.595Z,116943.30
2023-05-10T09:49:52.676Z,116943.30
2023-05-10T09:50:55.750Z,116943.30
2023-05-10T09:51:58.844Z,116943.30
2023-05-10T09:53:01.948Z,116943.30
2023-05-10T09:54:04.590Z,116943.30
2023-05-10T09:55:07.353Z,116943.30
2023-05-10T09:56:10.052Z,116943.30
2023-05-10T09:57:12.891Z,116943.30
2023-05-10T09:58:15.770Z,116943.30
2023-05-10T09:59:18.557Z,116943.30
2023-05-10T10:00:21.213Z,116943.30
2023-05-10T10:01:24.031Z,116943.30
2023-05-10T10:02:26.978Z,116943.30
2023-05-10T10:03:30.436Z,116943.30
2023-05-10T10:04:33.785Z,116943.30
2023-05-10T10:05:37.013Z,116943.30
2023-05-10T10:06:39.822Z,116943.30
2023-05-10T10:07:42.874Z,116943.30
2023-05-10T10:08:46.171Z,116943.30
2023-05-10T10:09:49.235Z,116943.30
2023-05-10T10:10:54.677Z,116943.30
2023-05-10T10:11:57.654Z,116943.30
2023-05-10T10:13:00.727Z,116943.30
2023-05-10T10:14:03.811Z,116943.30
2023-05-10T10:15:06.682Z,116943.30
2023-05-10T10:16:09.776Z,116943.30
2023-05-10T10:17:12.840Z,116943.30
2023-05-10T10:18:21.518Z,116943.30
2023-05-10T10:19:24.645Z,116943.30
2023-05-10T10:20:27.719Z,116943.30
2023-05-10T10:21:30.695Z,116943.30
2023-05-10T10:22:33.669Z,116943.30
2023-05-10T10:23:36.748Z,116943.30
2023-05-10T10:24:39.928Z,116943.30
2023-05-10T10:25:43.007Z,116943.30
2023-05-10T10:26:45.986Z,116943.30
2023-05-10T10:27:48.967Z,116943.30
2023-05-10T10:28:51.936Z,116943.30
2023-05-10T10:29:54.819Z,116943.30
2023-05-10T10:30:57.801Z,116943.30
2023-05-10T10:32:00.779Z,116943.30
2023-05-10T10:33:07.921Z,116943.30
2023-05-10T10:34:08.204Z,116943.30
2023-05-10T10:35:11.340Z,116943.30
2023-05-10T10:36:14.315Z,116943.30
2023-05-10T10:37:17.303Z,116943.30
2023-05-10T10:38:20.364Z,116943.30
2023-05-10T10:39:23.352Z,116943.30
2023-05-10T10:40:26.387Z,116943.30
2023-05-10T10:41:29.402Z,116943.30
2023-05-10T10:42:32.283Z,116943.30
2023-05-10T10:43:35.455Z,116943.30
2023-05-10T10:44:38.550Z,116943.30
2023-05-10T10:45:42.255Z,116943.30
2023-05-10T10:46:45.569Z,116943.30
2023-05-10T10:47:49.465Z,116943.30
2023-05-10T10:48:54.749Z,116943.30
2023-05-10T10:49:57.928Z,116943.30
2023-05-10T10:51:01.213Z,116943.30
2023-05-10T10:52:05.005Z,116943.30
2023-05-10T10:53:08.101Z,116943.30
2023-05-10T10:54:11.066Z,116943.30
2023-05-10T10:55:14.098Z,116943.30
2023-05-10T10:56:17.223Z,116943.30
2023-05-10T10:57:20.496Z,116943.30
2023-05-10T10:58:23.382Z,116943.30
2023-05-10T10:59:26.358Z,116943.30
2023-05-10T11:00:29.345Z,116943.30
2023-05-10T11:01:32.134Z,116943.30
2023-05-10T11:02:34.968Z,116943.30
2023-05-10T11:03:37.552Z,116943.30
2023-05-10T11:04:40.346Z,116943.30
2023-05-10T11:05:42.945Z,116943.30
2023-05-10T11:06:45.559Z,116943.30
2023-05-10T11:07:48.227Z,116943.30
2023-05-10T11:08:51.001Z,116943.30
2023-05-10T11:09:53.773Z,116943.30
2023-05-10T11:10:56.658Z,116943.30
2023-05-10T11:11:59.561Z,116943.30
2023-05-10T11:13:02.303Z,116943.30
2023-05-10T11:14:05.269Z,116943.30
2023-05-10T11:15:08.256Z,116943.30
2023-05-10T11:16:11.558Z,116943.30
2023-05-10T11:17:14.773Z,116943.30
2023-05-10T11:18:17.848Z,116943.30
2023-05-10T11:19:20.889Z,116943.30
2023-05-10T11:20:23.968Z,116943.30
2023-05-10T11:21:26.581Z,116943.30
2023-05-10T11:22:30.017Z,116943.30
2023-05-10T11:23:33.334Z,116943.30
2023-05-10T11:24:36.395Z,116943.30
2023-05-10T11:25:39.352Z,116943.30
2023-05-10T11:26:42.330Z,116943.30
2023-05-10T11:27:45.711Z,116943.30
2023-05-10T11:28:49.030Z,116943.30
2023-05-10T11:29:52.078Z,116943.30
2023-05-10T11:30:55.507Z,116943.30
2023-05-10T11:31:58.541Z,116943.30
2023-05-10T11:33:01.481Z,116943.30
2023-05-10T11:34:04.510Z,116943.30
2023-05-10T11:35:07.391Z,116943.30
2023-05-10T11:36:10.352Z,116943.30
2023-05-10T11:37:13.428Z,116943.30
2023-05-10T11:38:16.710Z,116943.30
2023-05-10T11:39:19.693Z,116943.30
2023-05-10T11:40:22.686Z,116943.30
2023-05-10T11:41:25.647Z,116943.30
2023-05-10T11:42:28.726Z,116943.30
2023-05-10T11:43:31.922Z,116943.30
2023-05-10T11:44:34.696Z,116943.30
2023-05-10T11:45:37.767Z,116943.30
2023-05-10T11:46:40.144Z,116943.30
2023-05-10T11:47:43.121Z,116943.30
2023-05-10T11:48:46.284Z,116943.30
2023-05-10T11:49:49.051Z,116943.30
2023-05-10T11:50:51.927Z,116943.30
2023-05-10T11:51:54.801Z,116943.30
2023-05-10T11:52:57.778Z,116943.30
2023-05-10T11:54:00.658Z,116943.30
2023-05-10T11:55:03.630Z,116943.30
2023-05-10T11:56:06.630Z,116943.30
2023-05-10T11:57:09.589Z,116943.30
2023-05-10T11:58:12.765Z,116943.30
2023-05-10T11:59:15.543Z,116943.30
2023-05-10T12:00:18.614Z,116943.30
2023-05-10T12:01:21.698Z,116943.30
2023-05-10T12:02:24.563Z,116943.30
2023-05-10T12:03:27.466Z,116943.30
2023-05-10T12:04:30.124Z,116943.30
2023-05-10T12:05:32.778Z,116943.30
2023-05-10T12:06:35.348Z,116943.30
2023-05-10T12:07:38.132Z,116943.30
2023-05-10T12:08:40.897Z,116943.30